Terminal Aerodrome Forecast
Issued by NWS

Home | Current Version | Previous Version | Text Only | Print | Product List | Glossary On
Versions: 1 2 3 4 5 6 7 8 9 10 11 12 13 14 15 16 17 18
557
FTUS42 KTBW 281738
TAFPIE
TAF
KPIE 281738Z 2818/2918 05005KT P6SM SCT040 SCT250
     FM282100 02006KT P6SM VCTS SCT025CB BKN050
     FM290000 07007KT P6SM VCTS SCT025CB BKN100
     FM290300 10005KT P6SM SCT130 BKN250
     FM291400 12007KT P6SM SCT030 BKN250
     FM291700 07006KT P6SM SCT040 BKN250=

USA.gov is the U.S. government's official web portal to all federal, state and local government web resources and services.